createdAt,value
2017-12-31T00:01:03.301Z,12.59
2017-12-31T00:03:34.170Z,12.66
2017-12-31T00:06:05.188Z,12.57
2017-12-31T00:08:36.178Z,12.63
2017-12-31T00:11:07.227Z,12.51
2017-12-31T00:13:39.075Z,12.46
2017-12-31T00:16:15.697Z,12.36
2017-12-31T00:18:49.135Z,12.33
2017-12-31T00:21:21.598Z,12.40
2017-12-31T00:23:54.655Z,12.35
2017-12-31T00:26:27.488Z,12.42
2017-12-31T00:29:01.069Z,12.27
2017-12-31T00:31:32.689Z,12.41
2017-12-31T00:34:15.011Z,12.37
2017-12-31T00:36:50.199Z,12.36
2017-12-31T00:39:30.024Z,12.26
2017-12-31T00:42:03.639Z,12.41
2017-12-31T00:44:35.802Z,12.35
2017-12-31T00:47:07.816Z,12.25
2017-12-31T00:49:39.340Z,12.32
2017-12-31T00:52:10.011Z,12.23
2017-12-31T00:54:41.049Z,12.41
2017-12-31T00:57:11.600Z,12.47
2017-12-31T00:59:42.375Z,12.51
2017-12-31T01:02:13.192Z,12.56
2017-12-31T01:04:43.342Z,12.68
2017-12-31T01:07:13.669Z,12.55
2017-12-31T01:09:44.015Z,12.72
2017-12-31T01:12:15.334Z,12.52
2017-12-31T01:14:45.795Z,12.49
2017-12-31T01:17:17.970Z,12.48
2017-12-31T01:19:49.379Z,12.44
2017-12-31T01:22:21.265Z,12.44
2017-12-31T01:24:51.680Z,12.61
2017-12-31T01:27:22.265Z,12.50
2017-12-31T01:29:52.946Z,12.34
2017-12-31T01:32:24.896Z,12.27
2017-12-31T01:34:54.960Z,12.14
2017-12-31T01:37:28.294Z,12.42
2017-12-31T01:40:00.206Z,12.31
2017-12-31T01:42:31.104Z,12.28
2017-12-31T01:45:01.505Z,12.57
2017-12-31T01:47:32.304Z,12.52
2017-12-31T01:50:04.540Z,12.46
2017-12-31T01:52:36.692Z,12.56
2017-12-31T01:55:09.022Z,12.51
2017-12-31T01:57:38.960Z,12.41
2017-12-31T02:00:11.632Z,12.51
2017-12-31T02:02:42.993Z,12.46
2017-12-31T02:05:14.643Z,12.62
2017-12-31T02:07:45.271Z,12.58
2017-12-31T02:10:16.551Z,12.47
2017-12-31T02:12:47.280Z,12.38
2017-12-31T02:15:17.502Z,12.56
2017-12-31T02:17:49.990Z,12.47
2017-12-31T02:20:21.699Z,12.46
2017-12-31T02:22:52.213Z,12.45
2017-12-31T02:25:22.921Z,12.53
2017-12-31T02:27:53.827Z,12.25
2017-12-31T02:30:24.673Z,12.37
2017-12-31T02:32:55.979Z,12.33
2017-12-31T02:35:26.204Z,12.32
2017-12-31T02:37:56.132Z,12.32
2017-12-31T02:40:26.622Z,12.30
2017-12-31T02:42:56.534Z,12.35
2017-12-31T02:45:26.782Z,12.20
2017-12-31T02:47:56.794Z,12.38
2017-12-31T02:50:27.246Z,12.46
2017-12-31T02:52:57.386Z,12.54
2017-12-31T02:55:29.776Z,12.39
2017-12-31T02:58:03.054Z,12.33
2017-12-31T03:00:33.723Z,12.19
2017-12-31T03:03:03.932Z,12.09
2017-12-31T03:05:34.898Z,12.04
2017-12-31T03:08:04.934Z,12.05
2017-12-31T03:10:35.082Z,12.02
2017-12-31T03:13:05.390Z,12.03
2017-12-31T03:15:36.886Z,11.99
2017-12-31T03:18:08.699Z,11.83
2017-12-31T03:20:39.284Z,11.92
2017-12-31T03:23:10.168Z,11.89
2017-12-31T03:25:39.994Z,11.81
2017-12-31T03:28:10.614Z,11.70
2017-12-31T03:30:40.841Z,11.53
2017-12-31T03:33:11.593Z,11.60
2017-12-31T03:35:41.744Z,11.48
2017-12-31T03:38:12.587Z,11.56
2017-12-31T03:40:43.026Z,11.66
2017-12-31T03:43:13.751Z,11.65
2017-12-31T03:45:44.413Z,11.49
2017-12-31T03:48:15.179Z,11.65
2017-12-31T03:50:45.465Z,11.71
2017-12-31T03:53:15.923Z,11.53
2017-12-31T03:55:45.911Z,11.55
2017-12-31T03:58:15.843Z,11.34
2017-12-31T04:00:45.820Z,11.43
2017-12-31T04:03:15.960Z,11.36
2017-12-31T04:05:46.287Z,11.14
2017-12-31T04:08:16.512Z,11.21
2017-12-31T04:10:51.396Z,11.14
2017-12-31T04:13:21.756Z,11.24
2017-12-31T04:15:52.767Z,11.17
2017-12-31T04:18:23.331Z,11.07
2017-12-31T04:20:52.949Z,10.96
2017-12-31T04:23:23.871Z,10.87
2017-12-31T04:25:54.319Z,11.03
2017-12-31T04:28:24.914Z,11.03
2017-12-31T04:30:55.562Z,10.98
2017-12-31T04:33:25.926Z,11.04
2017-12-31T04:35:56.387Z,11.07
2017-12-31T04:38:26.546Z,10.93
2017-12-31T04:40:56.840Z,10.95
2017-12-31T04:43:27.363Z,10.98
2017-12-31T04:45:58.894Z,10.97
2017-12-31T04:48:29.822Z,10.96
2017-12-31T04:51:00.343Z,10.94
2017-12-31T04:53:30.501Z,10.96
2017-12-31T04:56:00.697Z,10.94
2017-12-31T04:58:31.251Z,10.97
2017-12-31T05:01:01.390Z,10.96
2017-12-31T05:03:31.743Z,11.15
2017-12-31T05:06:02.192Z,11.00
2017-12-31T05:08:32.213Z,10.78
2017-12-31T05:11:02.513Z,10.86
2017-12-31T05:13:33.132Z,10.74
2017-12-31T05:16:03.099Z,10.84
2017-12-31T05:18:33.135Z,10.88
2017-12-31T05:21:03.470Z,10.90
2017-12-31T05:23:35.110Z,10.80
2017-12-31T05:26:05.099Z,10.88
2017-12-31T05:28:36.067Z,11.08
2017-12-31T05:31:08.005Z,11.05
2017-12-31T05:33:38.550Z,11.03
2017-12-31T05:36:10.024Z,10.90
2017-12-31T05:38:40.508Z,10.76
2017-12-31T05:41:11.125Z,10.94
2017-12-31T05:43:41.125Z,11.07
2017-12-31T05:46:11.129Z,11.04
2017-12-31T05:48:41.683Z,10.86
2017-12-31T05:51:11.909Z,10.83
2017-12-31T05:53:42.042Z,10.89
2017-12-31T05:56:12.864Z,11.05
2017-12-31T05:58:42.818Z,10.81
2017-12-31T06:01:18.084Z,10.87
2017-12-31T06:03:48.062Z,10.79
2017-12-31T06:06:18.273Z,10.78
2017-12-31T06:08:48.601Z,10.80
2017-12-31T06:11:18.953Z,10.78
2017-12-31T06:13:51.478Z,10.91
2017-12-31T06:16:22.840Z,10.83
2017-12-31T06:18:53.140Z,10.72
2017-12-31T06:21:24.079Z,10.71
2017-12-31T06:23:56.892Z,10.93
2017-12-31T06:26:29.146Z,10.90
2017-12-31T06:28:59.072Z,10.88
2017-12-31T06:31:30.024Z,10.76
2017-12-31T06:34:00.389Z,10.86
2017-12-31T06:36:30.490Z,11.03
2017-12-31T06:39:01.172Z,11.13
2017-12-31T06:41:33.281Z,11.13
2017-12-31T06:44:03.812Z,11.45
2017-12-31T06:46:33.536Z,11.21
2017-12-31T06:49:04.262Z,11.33
2017-12-31T06:51:37.333Z,11.41
2017-12-31T06:54:07.352Z,11.53
2017-12-31T06:56:38.387Z,11.62
2017-12-31T06:59:09.327Z,11.83
2017-12-31T07:01:39.383Z,11.95
2017-12-31T07:04:10.110Z,11.98
2017-12-31T07:06:40.686Z,11.85
2017-12-31T07:09:10.521Z,11.80
2017-12-31T07:11:42.310Z,11.88
2017-12-31T07:14:13.184Z,12.04
2017-12-31T07:16:43.627Z,12.27
2017-12-31T07:19:13.677Z,12.37
2017-12-31T07:21:44.084Z,12.47
2017-12-31T07:24:14.303Z,12.48
2017-12-31T07:26:46.577Z,12.56
2017-12-31T07:29:17.306Z,12.78
2017-12-31T07:31:47.433Z,12.77
2017-12-31T07:34:20.157Z,12.94
2017-12-31T07:36:51.983Z,12.75
2017-12-31T07:39:23.753Z,12.84
2017-12-31T07:41:53.964Z,12.93
2017-12-31T07:44:24.480Z,12.86
2017-12-31T07:46:55.024Z,13.02
2017-12-31T07:49:25.720Z,12.90
2017-12-31T07:51:58.913Z,12.89
2017-12-31T07:54:29.556Z,13.04
2017-12-31T07:57:00.441Z,13.15
2017-12-31T07:59:31.165Z,13.05
2017-12-31T08:02:00.789Z,12.99
2017-12-31T08:04:30.969Z,12.98
2017-12-31T08:07:00.565Z,13.12
2017-12-31T08:09:30.692Z,13.17
2017-12-31T08:12:00.469Z,13.21
2017-12-31T08:14:30.739Z,13.10
2017-12-31T08:17:03.378Z,13.14
2017-12-31T08:19:35.570Z,13.00
2017-12-31T08:22:08.237Z,13.24
2017-12-31T08:24:39.278Z,13.29
2017-12-31T08:27:11.137Z,13.28
2017-12-31T08:29:41.831Z,13.20
2017-12-31T08:32:12.302Z,13.31
2017-12-31T08:34:42.883Z,13.30
2017-12-31T08:37:12.776Z,13.25
2017-12-31T08:39:42.968Z,13.24
2017-12-31T08:42:14.767Z,13.31
2017-12-31T08:44:49.004Z,13.21
2017-12-31T08:47:22.074Z,13.27
2017-12-31T08:49:57.698Z,13.33
2017-12-31T08:52:33.242Z,13.45
2017-12-31T08:55:05.830Z,13.36
2017-12-31T08:57:47.383Z,13.54
2017-12-31T09:00:20.706Z,13.59
2017-12-31T09:02:55.934Z,13.54
2017-12-31T09:05:26.223Z,13.60
2017-12-31T09:07:56.930Z,13.69
2017-12-31T09:10:34.249Z,13.68
2017-12-31T09:13:09.846Z,13.62
2017-12-31T09:15:44.784Z,13.84
2017-12-31T09:18:18.446Z,13.79
2017-12-31T09:21:06.241Z,14.01
2017-12-31T09:23:38.974Z,13.99
2017-12-31T09:26:17.119Z,14.13
2017-12-31T09:28:49.218Z,14.07
2017-12-31T09:31:19.582Z,13.97
2017-12-31T09:39:11.694Z,14.07
2017-12-31T09:41:54.752Z,13.97
2017-12-31T09:44:32.172Z,14.15
2017-12-31T09:47:10.882Z,14.22
2017-12-31T09:49:42.456Z,14.24
2017-12-31T09:52:20.715Z,14.23
2017-12-31T09:57:59.135Z,14.41
2017-12-31T10:00:31.956Z,14.37
2017-12-31T10:03:04.574Z,14.38
2017-12-31T10:05:38.674Z,14.36
2017-12-31T10:08:09.768Z,14.42
2017-12-31T10:10:43.608Z,14.48
2017-12-31T10:13:31.566Z,14.44
2017-12-31T10:16:01.987Z,14.51
2017-12-31T10:18:33.451Z,14.36
2017-12-31T10:21:26.792Z,14.24
2017-12-31T10:24:06.771Z,14.37
2017-12-31T10:26:40.353Z,14.45
2017-12-31T10:29:11.767Z,14.47
2017-12-31T10:31:44.876Z,14.56
2017-12-31T10:34:16.645Z,14.59
2017-12-31T10:36:47.123Z,14.74
2017-12-31T10:39:19.471Z,14.86
2017-12-31T10:41:50.922Z,14.72
2017-12-31T10:44:24.014Z,14.74
2017-12-31T10:46:59.556Z,14.82
2017-12-31T10:49:43.622Z,14.94
2017-12-31T10:55:17.664Z,15.09
2017-12-31T10:57:57.718Z,14.80
2017-12-31T11:00:36.749Z,14.59
2017-12-31T11:03:13.431Z,14.40
2017-12-31T11:05:45.709Z,14.40
2017-12-31T11:08:18.309Z,14.40
2017-12-31T11:10:48.799Z,14.48
2017-12-31T11:13:21.801Z,14.36
2017-12-31T11:15:52.534Z,14.44
2017-12-31T11:18:25.230Z,14.48
2017-12-31T11:20:57.626Z,14.25
2017-12-31T11:23:27.689Z,14.28
2017-12-31T11:25:58.132Z,14.23
2017-12-31T11:28:29.107Z,14.29
2017-12-31T11:30:59.262Z,14.37
2017-12-31T11:33:29.830Z,14.49
2017-12-31T11:36:02.050Z,14.51
2017-12-31T11:38:33.530Z,14.38
2017-12-31T11:41:05.418Z,14.59
2017-12-31T11:43:36.553Z,14.41
2017-12-31T11:46:08.119Z,14.64
2017-12-31T11:48:38.444Z,14.53
2017-12-31T11:51:09.324Z,14.75
2017-12-31T11:53:40.383Z,14.86
2017-12-31T11:56:10.985Z,14.80
2017-12-31T11:58:41.290Z,14.93
2017-12-31T12:01:13.634Z,15.01
2017-12-31T12:03:44.882Z,15.01
2017-12-31T12:06:15.471Z,14.90
2017-12-31T12:08:47.024Z,15.06
2017-12-31T12:11:18.071Z,14.90
2017-12-31T12:13:50.236Z,14.85
2017-12-31T12:16:20.673Z,14.83
2017-12-31T12:18:51.693Z,15.00
2017-12-31T12:21:21.509Z,14.95
2017-12-31T12:23:51.385Z,14.95
2017-12-31T12:26:23.291Z,14.99
2017-12-31T12:28:53.789Z,14.74
2017-12-31T12:31:28.936Z,14.72
2017-12-31T12:34:00.243Z,14.69
2017-12-31T12:36:30.156Z,14.82
2017-12-31T12:39:00.636Z,14.73
2017-12-31T12:41:31.542Z,14.69
2017-12-31T12:44:10.680Z,14.74
2017-12-31T12:46:46.909Z,14.74
2017-12-31T12:49:18.203Z,14.66
2017-12-31T12:51:48.264Z,14.57
2017-12-31T12:54:20.319Z,14.71
2017-12-31T12:56:50.969Z,14.67
2017-12-31T12:59:21.631Z,14.67
2017-12-31T13:01:54.333Z,14.62
2017-12-31T13:04:28.181Z,14.51
2017-12-31T13:06:59.360Z,14.49
2017-12-31T13:09:32.665Z,14.53
2017-12-31T13:12:06.515Z,14.38
2017-12-31T13:14:38.409Z,14.29
2017-12-31T13:17:09.249Z,14.36
2017-12-31T13:19:40.722Z,14.26
2017-12-31T13:22:13.439Z,14.29
2017-12-31T13:24:44.340Z,14.41
2017-12-31T13:27:16.161Z,14.35
2017-12-31T13:29:45.990Z,14.42
2017-12-31T13:32:17.388Z,14.55
2017-12-31T13:34:48.341Z,14.29
2017-12-31T13:37:21.520Z,14.15
2017-12-31T13:39:52.638Z,14.16
2017-12-31T13:42:23.269Z,14.12
2017-12-31T13:44:54.726Z,14.21
2017-12-31T13:47:27.087Z,14.23
2017-12-31T13:49:57.610Z,13.96
2017-12-31T13:52:28.921Z,14.10
2017-12-31T13:55:01.980Z,14.01
2017-12-31T13:57:33.166Z,14.10
2017-12-31T14:00:04.479Z,13.98
2017-12-31T14:02:35.610Z,13.94
2017-12-31T14:05:07.292Z,13.96
2017-12-31T14:07:38.599Z,13.93
2017-12-31T14:10:12.973Z,13.88
2017-12-31T14:12:46.080Z,14.02
2017-12-31T14:15:17.396Z,13.80
2017-12-31T14:17:47.798Z,13.92
2017-12-31T14:20:19.680Z,13.96
2017-12-31T14:22:51.110Z,13.91
2017-12-31T14:25:21.385Z,13.97
2017-12-31T14:27:52.522Z,13.96
2017-12-31T14:30:23.301Z,13.85
2017-12-31T14:33:01.258Z,13.72
2017-12-31T14:35:31.772Z,13.80
2017-12-31T14:38:09.956Z,13.75
2017-12-31T14:40:40.503Z,13.80
2017-12-31T14:43:11.943Z,13.83
2017-12-31T14:45:46.915Z,13.74
2017-12-31T14:48:19.467Z,13.69
2017-12-31T14:50:50.591Z,13.45
2017-12-31T14:53:22.047Z,13.58
2017-12-31T14:55:54.449Z,13.63
2017-12-31T14:58:24.947Z,13.58
2017-12-31T15:00:56.117Z,13.39
2017-12-31T15:03:26.120Z,13.47
2017-12-31T15:05:57.237Z,13.22
2017-12-31T15:08:27.433Z,13.20
2017-12-31T15:10:57.476Z,13.32
2017-12-31T15:13:28.781Z,13.28
2017-12-31T15:15:59.828Z,13.28
2017-12-31T15:18:30.347Z,13.30
2017-12-31T15:21:03.844Z,13.24
2017-12-31T15:23:39.348Z,13.39
2017-12-31T15:26:09.376Z,13.38
2017-12-31T15:28:40.102Z,13.24
2017-12-31T15:31:11.878Z,13.24
2017-12-31T15:33:42.474Z,13.16
2017-12-31T15:36:12.902Z,13.18
2017-12-31T15:38:45.664Z,13.18
2017-12-31T15:41:16.230Z,13.07
2017-12-31T15:43:47.276Z,13.17
2017-12-31T15:46:18.006Z,12.94
2017-12-31T15:48:48.090Z,12.93
2017-12-31T15:51:18.546Z,13.06
2017-12-31T15:53:50.003Z,13.01
2017-12-31T15:56:19.875Z,12.96
2017-12-31T15:58:49.753Z,13.02
2017-12-31T16:01:20.003Z,12.91
2017-12-31T16:03:51.130Z,12.95
2017-12-31T16:06:22.437Z,13.04
2017-12-31T16:08:52.767Z,13.05
2017-12-31T16:11:22.620Z,13.07
2017-12-31T16:13:56.381Z,12.95
2017-12-31T16:16:27.843Z,13.09
2017-12-31T16:19:00.553Z,12.98
2017-12-31T16:21:32.981Z,13.02
2017-12-31T16:25:27.915Z,13.06
2017-12-31T16:27:59.500Z,13.02
2017-12-31T16:30:29.529Z,12.95
2017-12-31T16:33:03.421Z,12.91
2017-12-31T16:35:34.439Z,12.98
2017-12-31T16:38:05.226Z,12.94
2017-12-31T16:40:35.436Z,13.05
2017-12-31T16:43:07.185Z,12.98
2017-12-31T16:45:38.572Z,13.00
2017-12-31T16:48:10.108Z,13.01
2017-12-31T16:50:40.284Z,12.96
2017-12-31T16:53:10.809Z,13.02
2017-12-31T16:55:40.901Z,13.13
2017-12-31T16:58:12.372Z,13.19
2017-12-31T17:00:42.592Z,13.03
2017-12-31T17:03:12.348Z,12.97
2017-12-31T17:05:42.808Z,12.88
2017-12-31T17:08:12.722Z,13.01
2017-12-31T17:10:42.849Z,13.00
2017-12-31T17:13:13.110Z,13.00
2017-12-31T17:15:44.151Z,13.06
2017-12-31T17:18:15.479Z,13.11
2017-12-31T17:20:47.196Z,13.02
2017-12-31T17:23:18.106Z,13.09
2017-12-31T17:25:50.362Z,13.10
2017-12-31T17:28:21.724Z,13.13
2017-12-31T17:30:53.489Z,13.07
2017-12-31T17:33:26.952Z,12.99
2017-12-31T17:35:58.489Z,13.07
2017-12-31T17:38:35.586Z,13.01
2017-12-31T17:41:10.173Z,12.97
2017-12-31T17:43:41.990Z,13.07
2017-12-31T17:46:13.203Z,13.00
2017-12-31T17:48:43.980Z,13.02
2017-12-31T17:51:14.556Z,12.92
2017-12-31T17:53:44.450Z,12.95
2017-12-31T17:56:14.467Z,13.02
2017-12-31T17:58:45.246Z,12.90
2017-12-31T18:01:15.446Z,12.99
2017-12-31T18:03:46.107Z,12.93
2017-12-31T18:06:18.620Z,12.95
2017-12-31T18:08:53.902Z,12.96
2017-12-31T18:11:28.756Z,12.91
2017-12-31T18:14:46.758Z,12.67
2017-12-31T18:20:45.229Z,12.96
2017-12-31T18:23:24.211Z,12.93
2017-12-31T18:26:06.254Z,12.83
2017-12-31T18:29:08.237Z,12.95
2017-12-31T18:31:44.340Z,12.99
2017-12-31T18:34:21.528Z,12.91
2017-12-31T18:36:57.165Z,13.02
2017-12-31T18:39:37.332Z,12.96
2017-12-31T18:42:08.903Z,13.08
2017-12-31T18:44:39.952Z,12.96
2017-12-31T18:47:14.010Z,13.10
2017-12-31T18:50:03.061Z,12.82
2017-12-31T18:52:40.427Z,12.87
2017-12-31T18:55:36.020Z,12.99
2017-12-31T18:58:11.141Z,13.09
2017-12-31T19:00:47.439Z,13.02
2017-12-31T19:06:22.152Z,13.26
2017-12-31T19:08:55.110Z,13.38
2017-12-31T19:11:27.564Z,13.29
2017-12-31T19:13:57.578Z,13.38
2017-12-31T19:19:13.767Z,13.17
2017-12-31T19:21:44.217Z,13.19
2017-12-31T19:24:20.550Z,13.16
2017-12-31T19:26:53.942Z,13.14
2017-12-31T19:29:27.011Z,13.06
2017-12-31T19:32:08.470Z,12.97
2017-12-31T19:34:40.222Z,12.93
2017-12-31T19:37:20.529Z,12.74
2017-12-31T19:40:00.912Z,12.84
2017-12-31T19:42:38.848Z,12.86
2017-12-31T19:45:10.084Z,12.74
2017-12-31T19:47:41.433Z,12.87
2017-12-31T19:50:11.175Z,12.77
2017-12-31T19:52:41.867Z,12.67
2017-12-31T19:55:11.930Z,12.84
2017-12-31T19:57:41.645Z,12.81
2017-12-31T20:00:12.407Z,12.81
2017-12-31T20:02:42.654Z,12.59
2017-12-31T20:05:12.536Z,12.60
2017-12-31T20:07:43.545Z,12.52
2017-12-31T20:10:14.398Z,12.48
2017-12-31T20:12:44.772Z,12.56
2017-12-31T20:15:16.945Z,12.52
2017-12-31T20:17:47.199Z,12.53
2017-12-31T20:20:17.731Z,12.45
2017-12-31T20:22:48.184Z,12.49
2017-12-31T20:25:18.273Z,12.36
2017-12-31T20:27:48.248Z,12.26
2017-12-31T20:30:19.511Z,12.40
2017-12-31T20:32:50.317Z,12.27
2017-12-31T20:35:20.710Z,12.37
2017-12-31T20:37:54.659Z,12.36
2017-12-31T20:40:26.478Z,12.14
2017-12-31T20:42:57.385Z,12.36
2017-12-31T20:45:28.388Z,12.27
2017-12-31T20:47:58.677Z,12.20
2017-12-31T20:50:28.733Z,12.26
2017-12-31T20:52:59.837Z,12.17
2017-12-31T20:55:30.810Z,12.29
2017-12-31T20:58:02.454Z,12.42
2017-12-31T21:00:33.828Z,12.38
2017-12-31T21:03:06.175Z,12.52
2017-12-31T21:05:36.894Z,12.65
2017-12-31T21:08:07.747Z,12.60
2017-12-31T21:10:38.951Z,12.62
2017-12-31T21:13:11.361Z,12.75
2017-12-31T21:15:44.183Z,12.76
2017-12-31T21:18:14.444Z,12.80
2017-12-31T21:20:45.139Z,12.83
2017-12-31T21:23:17.057Z,12.78
2017-12-31T21:25:46.996Z,12.68
2017-12-31T21:28:19.021Z,12.72
2017-12-31T21:30:50.130Z,12.79
2017-12-31T21:33:22.381Z,12.85
